sensor_id;sensor_type;location;lat;lon;timestamp;temperature;humidity
23721;DHT22;42950;52.134;5.578;2022-08-19T00:00:15;19.50;99.90
23721;DHT22;42950;52.134;5.578;2022-08-19T00:02:42;19.60;99.90
23721;DHT22;42950;52.134;5.578;2022-08-19T00:05:09;19.50;99.90
23721;DHT22;42950;52.134;5.578;2022-08-19T00:07:36;19.50;99.90
23721;DHT22;42950;52.134;5.578;2022-08-19T00:10:02;19.40;99.90
23721;DHT22;42950;52.134;5.578;2022-08-19T00:12:28;19.40;99.90
23721;DHT22;42950;52.134;5.578;2022-08-19T00:14:54;19.40;99.90
23721;DHT22;42950;52.134;5.578;2022-08-19T00:17:20;19.40;99.90
23721;DHT22;42950;52.134;5.578;2022-08-19T00:19:45;19.30;99.90
23721;DHT22;42950;52.134;5.578;2022-08-19T00:22:11;19.20;99.90
23721;DHT22;42950;52.134;5.578;2022-08-19T00:24:37;19.20;99.90
23721;DHT22;42950;52.134;5.578;2022-08-19T00:27:05;19.20;99.90
23721;DHT22;42950;52.134;5.578;2022-08-19T00:29:31;19.10;99.90
23721;DHT22;42950;52.134;5.578;2022-08-19T00:31:57;19.10;99.90
23721;DHT22;42950;52.134;5.578;2022-08-19T00:34:24;19.10;99.90
23721;DHT22;42950;52.134;5.578;2022-08-19T00:36:55;19.00;99.90
23721;DHT22;42950;52.134;5.578;2022-08-19T00:39:21;19.00;99.90
23721;DHT22;42950;52.134;5.578;2022-08-19T00:41:48;19.00;99.90
23721;DHT22;42950;52.134;5.578;2022-08-19T00:44:27;19.00;99.90
23721;DHT22;42950;52.134;5.578;2022-08-19T00:46:56;19.00;99.90
23721;DHT22;42950;52.134;5.578;2022-08-19T00:49:47;19.00;99.90
23721;DHT22;42950;52.134;5.578;2022-08-19T00:52:32;18.90;99.90
23721;DHT22;42950;52.134;5.578;2022-08-19T00:55:00;18.90;99.90
23721;DHT22;42950;52.134;5.578;2022-08-19T00:57:35;18.90;99.90
23721;DHT22;42950;52.134;5.578;2022-08-19T01:00:09;18.90;99.90
23721;DHT22;42950;52.134;5.578;2022-08-19T01:02:37;18.90;99.90
23721;DHT22;42950;52.134;5.578;2022-08-19T01:05:08;18.90;99.90
23721;DHT22;42950;52.134;5.578;2022-08-19T01:07:35;18.90;99.90
23721;DHT22;42950;52.134;5.578;2022-08-19T01:10:04;18.90;99.90
23721;DHT22;42950;52.134;5.578;2022-08-19T01:12:32;18.80;99.90
23721;DHT22;42950;52.134;5.578;2022-08-19T01:14:58;18.80;99.90
23721;DHT22;42950;52.134;5.578;2022-08-19T01:17:26;18.80;99.90
23721;DHT22;42950;52.134;5.578;2022-08-19T01:19:53;18.80;99.90
23721;DHT22;42950;52.134;5.578;2022-08-19T01:24:53;18.80;99.90
23721;DHT22;42950;52.134;5.578;2022-08-19T01:27:20;18.80;99.90
23721;DHT22;42950;52.134;5.578;2022-08-19T01:29:46;18.80;99.90
23721;DHT22;42950;52.134;5.578;2022-08-19T01:32:14;18.80;99.90
23721;DHT22;42950;52.134;5.578;2022-08-19T01:34:41;18.80;99.90
23721;DHT22;42950;52.134;5.578;2022-08-19T01:37:11;18.80;99.90
23721;DHT22;42950;52.134;5.578;2022-08-19T01:39:39;18.70;99.90
23721;DHT22;42950;52.134;5.578;2022-08-19T01:42:06;18.70;99.90
23721;DHT22;42950;52.134;5.578;2022-08-19T01:44:33;18.70;99.90
23721;DHT22;42950;52.134;5.578;2022-08-19T01:46:59;18.70;99.90
23721;DHT22;42950;52.134;5.578;2022-08-19T01:49:25;18.70;99.90
23721;DHT22;42950;52.134;5.578;2022-08-19T01:51:53;18.70;99.90
23721;DHT22;42950;52.134;5.578;2022-08-19T01:54:21;18.60;99.90
23721;DHT22;42950;52.134;5.578;2022-08-19T01:56:48;18.60;99.90
23721;DHT22;42950;52.134;5.578;2022-08-19T01:59:18;18.60;99.90
23721;DHT22;42950;52.134;5.578;2022-08-19T02:01:44;18.60;99.90
23721;DHT22;42950;52.134;5.578;2022-08-19T02:04:10;18.50;99.90
23721;DHT22;42950;52.134;5.578;2022-08-19T02:06:37;18.50;99.90
23721;DHT22;42950;52.134;5.578;2022-08-19T02:09:06;18.40;99.90
23721;DHT22;42950;52.134;5.578;2022-08-19T02:11:34;18.50;99.90
23721;DHT22;42950;52.134;5.578;2022-08-19T02:14:03;18.50;99.90
23721;DHT22;42950;52.134;5.578;2022-08-19T02:16:29;18.50;99.90
23721;DHT22;42950;52.134;5.578;2022-08-19T02:18:56;18.40;99.90
23721;DHT22;42950;52.134;5.578;2022-08-19T02:21:23;18.40;99.90
23721;DHT22;42950;52.134;5.578;2022-08-19T02:23:49;18.40;99.90
23721;DHT22;42950;52.134;5.578;2022-08-19T02:26:16;18.40;99.90
23721;DHT22;42950;52.134;5.578;2022-08-19T02:28:43;18.30;99.90
23721;DHT22;42950;52.134;5.578;2022-08-19T02:31:10;18.30;99.90
23721;DHT22;42950;52.134;5.578;2022-08-19T02:33:36;18.30;99.90
23721;DHT22;42950;52.134;5.578;2022-08-19T02:36:06;18.30;99.90
23721;DHT22;42950;52.134;5.578;2022-08-19T02:38:32;18.30;99.90
23721;DHT22;42950;52.134;5.578;2022-08-19T02:41:04;18.30;99.90
23721;DHT22;42950;52.134;5.578;2022-08-19T02:43:31;18.30;99.90
23721;DHT22;42950;52.134;5.578;2022-08-19T02:45:58;18.20;99.90
23721;DHT22;42950;52.134;5.578;2022-08-19T02:48:24;18.20;99.90
23721;DHT22;42950;52.134;5.578;2022-08-19T02:50:52;18.20;99.90
23721;DHT22;42950;52.134;5.578;2022-08-19T02:53:25;18.10;99.90
23721;DHT22;42950;52.134;5.578;2022-08-19T02:55:52;18.10;99.90
23721;DHT22;42950;52.134;5.578;2022-08-19T02:58:18;18.20;99.90
23721;DHT22;42950;52.134;5.578;2022-08-19T03:00:51;18.20;99.90
23721;DHT22;42950;52.134;5.578;2022-08-19T03:03:18;18.20;99.90
23721;DHT22;42950;52.134;5.578;2022-08-19T03:05:45;18.10;99.90
23721;DHT22;42950;52.134;5.578;2022-08-19T03:08:12;18.10;99.90
23721;DHT22;42950;52.134;5.578;2022-08-19T03:10:46;18.10;99.90
23721;DHT22;42950;52.134;5.578;2022-08-19T03:13:16;18.10;99.90
23721;DHT22;42950;52.134;5.578;2022-08-19T03:15:44;18.10;99.90
23721;DHT22;42950;52.134;5.578;2022-08-19T03:18:11;18.10;99.90
23721;DHT22;42950;52.134;5.578;2022-08-19T03:20:44;18.10;99.90
23721;DHT22;42950;52.134;5.578;2022-08-19T03:23:11;18.10;99.90
23721;DHT22;42950;52.134;5.578;2022-08-19T03:25:46;18.00;99.90
23721;DHT22;42950;52.134;5.578;2022-08-19T03:28:14;18.00;99.90
23721;DHT22;42950;52.134;5.578;2022-08-19T03:30:40;18.00;99.90
23721;DHT22;42950;52.134;5.578;2022-08-19T03:33:10;18.00;99.90
23721;DHT22;42950;52.134;5.578;2022-08-19T03:35:38;18.00;99.90
23721;DHT22;42950;52.134;5.578;2022-08-19T03:38:05;17.90;99.90
23721;DHT22;42950;52.134;5.578;2022-08-19T03:40:32;17.90;99.90
23721;DHT22;42950;52.134;5.578;2022-08-19T03:43:00;17.90;99.90
23721;DHT22;42950;52.134;5.578;2022-08-19T03:45:26;17.80;99.90
23721;DHT22;42950;52.134;5.578;2022-08-19T03:47:53;17.80;99.90
23721;DHT22;42950;52.134;5.578;2022-08-19T03:50:20;17.80;99.90
23721;DHT22;42950;52.134;5.578;2022-08-19T03:52:50;17.80;99.90
23721;DHT22;42950;52.134;5.578;2022-08-19T03:55:17;17.80;99.90
23721;DHT22;42950;52.134;5.578;2022-08-19T03:57:43;17.80;99.90
23721;DHT22;42950;52.134;5.578;2022-08-19T04:00:09;17.70;99.90
23721;DHT22;42950;52.134;5.578;2022-08-19T04:02:34;17.70;99.90
23721;DHT22;42950;52.134;5.578;2022-08-19T04:05:00;17.70;99.90
23721;DHT22;42950;52.134;5.578;2022-08-19T04:07:26;17.80;99.90
23721;DHT22;42950;52.134;5.578;2022-08-19T04:09:52;17.70;99.90
23721;DHT22;42950;52.134;5.578;2022-08-19T04:12:18;17.70;99.90
23721;DHT22;42950;52.134;5.578;2022-08-19T04:14:45;17.70;99.90
23721;DHT22;42950;52.134;5.578;2022-08-19T04:17:11;17.70;99.90
23721;DHT22;42950;52.134;5.578;2022-08-19T04:19:40;17.70;99.90
23721;DHT22;42950;52.134;5.578;2022-08-19T04:22:07;17.60;99.90
23721;DHT22;42950;52.134;5.578;2022-08-19T04:24:34;17.60;99.90
23721;DHT22;42950;52.134;5.578;2022-08-19T04:27:01;17.60;99.90
23721;DHT22;42950;52.134;5.578;2022-08-19T04:29:28;17.60;99.90
23721;DHT22;42950;52.134;5.578;2022-08-19T04:31:57;17.50;99.90
23721;DHT22;42950;52.134;5.578;2022-08-19T04:34:26;17.50;99.90
23721;DHT22;42950;52.134;5.578;2022-08-19T04:36:54;17.50;99.90
23721;DHT22;42950;52.134;5.578;2022-08-19T04:39:25;17.50;99.90
23721;DHT22;42950;52.134;5.578;2022-08-19T04:42:13;17.50;99.90
23721;DHT22;42950;52.134;5.578;2022-08-19T04:44:58;17.50;99.90
23721;DHT22;42950;52.134;5.578;2022-08-19T04:47:24;17.50;99.90
23721;DHT22;42950;52.134;5.578;2022-08-19T04:49:50;17.50;99.90
23721;DHT22;42950;52.134;5.578;2022-08-19T04:52:16;17.50;99.90
23721;DHT22;42950;52.134;5.578;2022-08-19T04:54:42;17.50;99.90
23721;DHT22;42950;52.134;5.578;2022-08-19T04:57:09;17.50;99.90
23721;DHT22;42950;52.134;5.578;2022-08-19T04:59:35;17.40;99.90
23721;DHT22;42950;52.134;5.578;2022-08-19T05:02:02;17.40;99.90
23721;DHT22;42950;52.134;5.578;2022-08-19T05:04:28;17.40;99.90
23721;DHT22;42950;52.134;5.578;2022-08-19T05:06:56;17.30;99.90
23721;DHT22;42950;52.134;5.578;2022-08-19T05:09:21;17.30;99.90
23721;DHT22;42950;52.134;5.578;2022-08-19T05:11:47;17.30;99.90
23721;DHT22;42950;52.134;5.578;2022-08-19T05:14:16;17.30;99.90
23721;DHT22;42950;52.134;5.578;2022-08-19T05:16:41;17.30;99.90
23721;DHT22;42950;52.134;5.578;2022-08-19T05:19:07;17.20;99.90
23721;DHT22;42950;52.134;5.578;2022-08-19T05:21:51;17.20;99.90
23721;DHT22;42950;52.134;5.578;2022-08-19T05:24:36;17.20;99.90
23721;DHT22;42950;52.134;5.578;2022-08-19T05:27:03;17.20;99.90
23721;DHT22;42950;52.134;5.578;2022-08-19T05:29:32;17.20;99.90
23721;DHT22;42950;52.134;5.578;2022-08-19T05:32:00;17.30;99.90
23721;DHT22;42950;52.134;5.578;2022-08-19T05:34:27;17.30;99.90
23721;DHT22;42950;52.134;5.578;2022-08-19T05:36:56;17.30;99.90
23721;DHT22;42950;52.134;5.578;2022-08-19T05:39:24;17.30;99.90
23721;DHT22;42950;52.134;5.578;2022-08-19T05:41:53;17.30;99.90
23721;DHT22;42950;52.134;5.578;2022-08-19T05:44:20;17.30;99.90
23721;DHT22;42950;52.134;5.578;2022-08-19T05:46:47;17.30;99.90
23721;DHT22;42950;52.134;5.578;2022-08-19T05:49:15;17.30;99.90
23721;DHT22;42950;52.134;5.578;2022-08-19T05:51:42;17.30;99.90
23721;DHT22;42950;52.134;5.578;2022-08-19T05:54:08;17.30;99.90
23721;DHT22;42950;52.134;5.578;2022-08-19T05:56:35;17.30;99.90
23721;DHT22;42950;52.134;5.578;2022-08-19T05:59:04;17.40;99.90
23721;DHT22;42950;52.134;5.578;2022-08-19T06:01:34;17.50;99.90
23721;DHT22;42950;52.134;5.578;2022-08-19T06:04:01;17.50;99.90
23721;DHT22;42950;52.134;5.578;2022-08-19T06:06:28;17.60;99.90
23721;DHT22;42950;52.134;5.578;2022-08-19T06:08:55;17.60;99.90
23721;DHT22;42950;52.134;5.578;2022-08-19T06:11:24;17.70;99.90
23721;DHT22;42950;52.134;5.578;2022-08-19T06:13:59;17.80;99.90
23721;DHT22;42950;52.134;5.578;2022-08-19T06:16:27;17.80;99.90
23721;DHT22;42950;52.134;5.578;2022-08-19T06:18:54;17.90;99.90
23721;DHT22;42950;52.134;5.578;2022-08-19T06:21:22;18.00;99.90
23721;DHT22;42950;52.134;5.578;2022-08-19T06:23:49;17.90;99.90
23721;DHT22;42950;52.134;5.578;2022-08-19T06:26:16;18.00;99.90
23721;DHT22;42950;52.134;5.578;2022-08-19T06:28:42;18.00;99.90
23721;DHT22;42950;52.134;5.578;2022-08-19T06:33:42;18.20;99.90
23721;DHT22;42950;52.134;5.578;2022-08-19T06:36:16;18.30;99.90
23721;DHT22;42950;52.134;5.578;2022-08-19T06:38:42;18.30;99.90
23721;DHT22;42950;52.134;5.578;2022-08-19T06:41:07;18.40;99.90
23721;DHT22;42950;52.134;5.578;2022-08-19T06:43:34;18.40;99.90
23721;DHT22;42950;52.134;5.578;2022-08-19T06:46:01;18.50;99.90
23721;DHT22;42950;52.134;5.578;2022-08-19T06:48:29;18.60;99.90
23721;DHT22;42950;52.134;5.578;2022-08-19T06:50:55;18.60;99.90
23721;DHT22;42950;52.134;5.578;2022-08-19T06:53:21;18.50;99.90
23721;DHT22;42950;52.134;5.578;2022-08-19T06:55:46;18.50;99.90
23721;DHT22;42950;52.134;5.578;2022-08-19T06:58:12;18.60;99.90
23721;DHT22;42950;52.134;5.578;2022-08-19T07:00:38;18.60;99.90
23721;DHT22;42950;52.134;5.578;2022-08-19T07:03:03;18.80;99.90
23721;DHT22;42950;52.134;5.578;2022-08-19T07:05:29;18.90;99.90
23721;DHT22;42950;52.134;5.578;2022-08-19T07:07:54;19.00;99.90
23721;DHT22;42950;52.134;5.578;2022-08-19T07:10:20;19.00;99.90
23721;DHT22;42950;52.134;5.578;2022-08-19T07:12:46;19.10;99.90
23721;DHT22;42950;52.134;5.578;2022-08-19T07:15:12;19.10;99.90
23721;DHT22;42950;52.134;5.578;2022-08-19T07:17:39;19.10;99.90
23721;DHT22;42950;52.134;5.578;2022-08-19T07:20:06;19.00;99.90
23721;DHT22;42950;52.134;5.578;2022-08-19T07:22:36;19.00;99.90
23721;DHT22;42950;52.134;5.578;2022-08-19T07:25:03;19.10;99.90
23721;DHT22;42950;52.134;5.578;2022-08-19T07:27:29;19.10;99.90
23721;DHT22;42950;52.134;5.578;2022-08-19T07:29:54;19.10;99.90
23721;DHT22;42950;52.134;5.578;2022-08-19T07:32:20;19.10;99.90
23721;DHT22;42950;52.134;5.578;2022-08-19T07:34:45;19.10;99.90
23721;DHT22;42950;52.134;5.578;2022-08-19T07:37:11;19.20;99.90
23721;DHT22;42950;52.134;5.578;2022-08-19T07:39:37;19.30;99.90
23721;DHT22;42950;52.134;5.578;2022-08-19T07:42:07;19.30;99.90
23721;DHT22;42950;52.134;5.578;2022-08-19T07:44:33;19.30;99.90
23721;DHT22;42950;52.134;5.578;2022-08-19T07:47:00;19.10;99.90
23721;DHT22;42950;52.134;5.578;2022-08-19T07:49:26;19.30;99.90
23721;DHT22;42950;52.134;5.578;2022-08-19T07:51:58;19.30;99.90
23721;DHT22;42950;52.134;5.578;2022-08-19T07:54:28;19.30;99.90
23721;DHT22;42950;52.134;5.578;2022-08-19T07:56:54;19.40;99.90
23721;DHT22;42950;52.134;5.578;2022-08-19T07:59:21;19.50;99.90
23721;DHT22;42950;52.134;5.578;2022-08-19T08:01:47;19.70;99.90
23721;DHT22;42950;52.134;5.578;2022-08-19T08:04:13;19.60;99.90
23721;DHT22;42950;52.134;5.578;2022-08-19T08:06:58;19.70;99.90
23721;DHT22;42950;52.134;5.578;2022-08-19T08:09:43;19.80;99.90
23721;DHT22;42950;52.134;5.578;2022-08-19T08:12:15;20.00;99.90
23721;DHT22;42950;52.134;5.578;2022-08-19T08:14:46;20.00;99.90
23721;DHT22;42950;52.134;5.578;2022-08-19T08:17:14;20.20;99.90
23721;DHT22;42950;52.134;5.578;2022-08-19T08:19:41;20.40;99.90
23721;DHT22;42950;52.134;5.578;2022-08-19T08:22:08;20.50;99.90
23721;DHT22;42950;52.134;5.578;2022-08-19T08:24:54;20.50;99.90
23721;DHT22;42950;52.134;5.578;2022-08-19T08:27:20;20.50;99.90
23721;DHT22;42950;52.134;5.578;2022-08-19T08:29:45;20.60;99.90
23721;DHT22;42950;52.134;5.578;2022-08-19T08:32:11;20.60;99.90
23721;DHT22;42950;52.134;5.578;2022-08-19T08:34:36;20.70;99.90
23721;DHT22;42950;52.134;5.578;2022-08-19T08:37:02;20.60;99.90
23721;DHT22;42950;52.134;5.578;2022-08-19T08:39:28;20.80;99.90
23721;DHT22;42950;52.134;5.578;2022-08-19T08:42:29;21.00;99.90
23721;DHT22;42950;52.134;5.578;2022-08-19T08:47:22;21.20;99.90
23721;DHT22;42950;52.134;5.578;2022-08-19T08:50:05;21.20;99.90
23721;DHT22;42950;52.134;5.578;2022-08-19T08:52:48;21.30;99.90
23721;DHT22;42950;52.134;5.578;2022-08-19T08:55:19;21.20;99.90
23721;DHT22;42950;52.134;5.578;2022-08-19T09:00:15;21.10;99.90
23721;DHT22;42950;52.134;5.578;2022-08-19T09:02:43;20.90;99.90
23721;DHT22;42950;52.134;5.578;2022-08-19T09:05:09;20.90;99.90
23721;DHT22;42950;52.134;5.578;2022-08-19T09:07:46;20.80;99.90
23721;DHT22;42950;52.134;5.578;2022-08-19T09:10:36;20.90;99.90
23721;DHT22;42950;52.134;5.578;2022-08-19T09:16:19;21.30;99.90
23721;DHT22;42950;52.134;5.578;2022-08-19T09:18:50;21.50;99.90
23721;DHT22;42950;52.134;5.578;2022-08-19T09:21:19;21.40;99.90
23721;DHT22;42950;52.134;5.578;2022-08-19T09:23:46;21.40;99.90
23721;DHT22;42950;52.134;5.578;2022-08-19T09:26:15;21.50;99.90
23721;DHT22;42950;52.134;5.578;2022-08-19T09:28:43;21.60;99.90
23721;DHT22;42950;52.134;5.578;2022-08-19T09:31:25;21.90;99.90
23721;DHT22;42950;52.134;5.578;2022-08-19T09:33:52;22.00;99.90
23721;DHT22;42950;52.134;5.578;2022-08-19T09:36:20;22.20;99.90
23721;DHT22;42950;52.134;5.578;2022-08-19T09:38:47;22.20;99.90
23721;DHT22;42950;52.134;5.578;2022-08-19T09:41:17;22.10;99.90
23721;DHT22;42950;52.134;5.578;2022-08-19T09:43:46;22.10;99.90
23721;DHT22;42950;52.134;5.578;2022-08-19T09:46:13;22.10;99.90
23721;DHT22;42950;52.134;5.578;2022-08-19T09:48:39;22.50;99.90
23721;DHT22;42950;52.134;5.578;2022-08-19T09:51:08;22.80;99.90
23721;DHT22;42950;52.134;5.578;2022-08-19T09:53:34;23.00;99.90
23721;DHT22;42950;52.134;5.578;2022-08-19T09:56:01;23.30;99.90
23721;DHT22;42950;52.134;5.578;2022-08-19T09:58:26;23.40;99.90
23721;DHT22;42950;52.134;5.578;2022-08-19T10:00:57;23.40;99.90
23721;DHT22;42950;52.134;5.578;2022-08-19T10:03:24;23.10;99.90
23721;DHT22;42950;52.134;5.578;2022-08-19T10:05:50;23.20;99.90
23721;DHT22;42950;52.134;5.578;2022-08-19T10:08:21;23.50;99.90
23721;DHT22;42950;52.134;5.578;2022-08-19T10:10:48;23.30;99.90
23721;DHT22;42950;52.134;5.578;2022-08-19T10:13:16;23.30;99.90
23721;DHT22;42950;52.134;5.578;2022-08-19T10:15:43;23.40;99.90
23721;DHT22;42950;52.134;5.578;2022-08-19T10:18:09;23.40;99.90
23721;DHT22;42950;52.134;5.578;2022-08-19T10:20:35;23.50;99.90
23721;DHT22;42950;52.134;5.578;2022-08-19T10:23:03;23.60;99.90
23721;DHT22;42950;52.134;5.578;2022-08-19T10:25:29;24.10;99.90
23721;DHT22;42950;52.134;5.578;2022-08-19T10:27:55;24.20;99.90
23721;DHT22;42950;52.134;5.578;2022-08-19T10:30:20;24.40;99.90
23721;DHT22;42950;52.134;5.578;2022-08-19T10:32:46;24.50;99.90
23721;DHT22;42950;52.134;5.578;2022-08-19T10:35:13;24.60;99.90
23721;DHT22;42950;52.134;5.578;2022-08-19T10:37:39;24.50;99.90
23721;DHT22;42950;52.134;5.578;2022-08-19T10:40:06;24.50;99.90
23721;DHT22;42950;52.134;5.578;2022-08-19T10:42:33;24.30;99.90
23721;DHT22;42950;52.134;5.578;2022-08-19T10:44:59;24.10;99.90
23721;DHT22;42950;52.134;5.578;2022-08-19T10:47:25;24.20;99.90
23721;DHT22;42950;52.134;5.578;2022-08-19T10:49:51;24.30;99.90
23721;DHT22;42950;52.134;5.578;2022-08-19T10:52:49;24.40;99.90
23721;DHT22;42950;52.134;5.578;2022-08-19T10:55:23;24.30;99.90
23721;DHT22;42950;52.134;5.578;2022-08-19T10:58:15;24.60;99.90
23721;DHT22;42950;52.134;5.578;2022-08-19T11:00:42;24.60;99.90
23721;DHT22;42950;52.134;5.578;2022-08-19T11:03:09;24.70;99.90
23721;DHT22;42950;52.134;5.578;2022-08-19T11:05:34;24.90;99.90
23721;DHT22;42950;52.134;5.578;2022-08-19T11:08:00;25.00;99.90
23721;DHT22;42950;52.134;5.578;2022-08-19T11:10:26;24.90;99.90
23721;DHT22;42950;52.134;5.578;2022-08-19T11:12:51;24.90;99.90
23721;DHT22;42950;52.134;5.578;2022-08-19T11:15:20;25.20;99.90
23721;DHT22;42950;52.134;5.578;2022-08-19T11:17:46;25.30;99.90
23721;DHT22;42950;52.134;5.578;2022-08-19T11:20:13;25.20;99.90
23721;DHT22;42950;52.134;5.578;2022-08-19T11:22:40;25.50;99.90
23721;DHT22;42950;52.134;5.578;2022-08-19T11:25:07;25.70;99.90
23721;DHT22;42950;52.134;5.578;2022-08-19T11:27:32;26.00;99.90
23721;DHT22;42950;52.134;5.578;2022-08-19T11:29:59;26.20;99.90
23721;DHT22;42950;52.134;5.578;2022-08-19T11:32:25;26.40;99.90
23721;DHT22;42950;52.134;5.578;2022-08-19T11:34:51;26.40;99.90
23721;DHT22;42950;52.134;5.578;2022-08-19T11:37:17;26.60;99.90
23721;DHT22;42950;52.134;5.578;2022-08-19T11:39:42;26.50;99.90
23721;DHT22;42950;52.134;5.578;2022-08-19T11:42:08;26.60;99.90
23721;DHT22;42950;52.134;5.578;2022-08-19T11:44:53;26.50;99.90
23721;DHT22;42950;52.134;5.578;2022-08-19T11:47:19;26.60;99.90
23721;DHT22;42950;52.134;5.578;2022-08-19T11:49:46;26.60;99.90
23721;DHT22;42950;52.134;5.578;2022-08-19T11:52:12;26.60;99.90
23721;DHT22;42950;52.134;5.578;2022-08-19T11:54:37;26.60;99.90
23721;DHT22;42950;52.134;5.578;2022-08-19T11:57:03;26.40;99.90
23721;DHT22;42950;52.134;5.578;2022-08-19T11:59:29;26.50;99.90
23721;DHT22;42950;52.134;5.578;2022-08-19T12:01:55;26.20;99.90
23721;DHT22;42950;52.134;5.578;2022-08-19T12:04:22;26.30;99.90
23721;DHT22;42950;52.134;5.578;2022-08-19T12:06:47;26.30;99.90
23721;DHT22;42950;52.134;5.578;2022-08-19T12:09:13;26.60;99.90
23721;DHT22;42950;52.134;5.578;2022-08-19T12:11:40;26.40;99.90
23721;DHT22;42950;52.134;5.578;2022-08-19T12:14:09;26.30;99.90
23721;DHT22;42950;52.134;5.578;2022-08-19T12:16:35;26.20;99.90
23721;DHT22;42950;52.134;5.578;2022-08-19T12:19:03;26.40;99.90
23721;DHT22;42950;52.134;5.578;2022-08-19T12:21:31;26.50;99.90
23721;DHT22;42950;52.134;5.578;2022-08-19T12:23:59;26.60;99.90
23721;DHT22;42950;52.134;5.578;2022-08-19T12:26:26;26.60;99.90
23721;DHT22;42950;52.134;5.578;2022-08-19T12:28:52;26.60;99.90
23721;DHT22;42950;52.134;5.578;2022-08-19T12:31:18;26.70;99.90
23721;DHT22;42950;52.134;5.578;2022-08-19T12:33:45;27.00;99.90
23721;DHT22;42950;52.134;5.578;2022-08-19T12:36:13;27.00;99.90
23721;DHT22;42950;52.134;5.578;2022-08-19T12:38:40;27.20;99.90
23721;DHT22;42950;52.134;5.578;2022-08-19T12:41:09;27.00;99.90
23721;DHT22;42950;52.134;5.578;2022-08-19T12:43:36;27.10;99.90
23721;DHT22;42950;52.134;5.578;2022-08-19T12:46:03;26.90;99.90
23721;DHT22;42950;52.134;5.578;2022-08-19T12:48:30;26.80;99.90
23721;DHT22;42950;52.134;5.578;2022-08-19T12:50:56;26.70;99.90
23721;DHT22;42950;52.134;5.578;2022-08-19T12:53:22;26.50;99.90
23721;DHT22;42950;52.134;5.578;2022-08-19T12:55:48;26.60;99.90
23721;DHT22;42950;52.134;5.578;2022-08-19T12:58:21;26.70;99.90
23721;DHT22;42950;52.134;5.578;2022-08-19T13:00:47;26.20;99.90
23721;DHT22;42950;52.134;5.578;2022-08-19T13:03:12;25.80;99.90
23721;DHT22;42950;52.134;5.578;2022-08-19T13:05:38;25.40;99.90
23721;DHT22;42950;52.134;5.578;2022-08-19T13:08:04;25.20;99.90
23721;DHT22;42950;52.134;5.578;2022-08-19T13:10:33;25.00;99.90
23721;DHT22;42950;52.134;5.578;2022-08-19T13:13:04;25.10;99.90
23721;DHT22;42950;52.134;5.578;2022-08-19T13:15:34;24.90;99.90
23721;DHT22;42950;52.134;5.578;2022-08-19T13:18:00;24.90;99.90
23721;DHT22;42950;52.134;5.578;2022-08-19T13:20:25;24.60;99.90
23721;DHT22;42950;52.134;5.578;2022-08-19T13:22:53;24.30;99.90
23721;DHT22;42950;52.134;5.578;2022-08-19T13:25:18;24.10;99.90
23721;DHT22;42950;52.134;5.578;2022-08-19T13:27:45;23.70;99.90
23721;DHT22;42950;52.134;5.578;2022-08-19T13:30:14;23.60;99.90
23721;DHT22;42950;52.134;5.578;2022-08-19T13:32:59;23.60;99.90
23721;DHT22;42950;52.134;5.578;2022-08-19T13:35:38;23.50;99.90
23721;DHT22;42950;52.134;5.578;2022-08-19T13:38:04;23.50;99.90
23721;DHT22;42950;52.134;5.578;2022-08-19T13:40:32;23.60;99.90
23721;DHT22;42950;52.134;5.578;2022-08-19T13:42:59;23.40;99.90
23721;DHT22;42950;52.134;5.578;2022-08-19T13:45:27;23.40;99.90
23721;DHT22;42950;52.134;5.578;2022-08-19T13:47:55;23.60;99.90
23721;DHT22;42950;52.134;5.578;2022-08-19T13:50:24;23.50;99.90
23721;DHT22;42950;52.134;5.578;2022-08-19T13:52:51;23.40;99.90
23721;DHT22;42950;52.134;5.578;2022-08-19T13:55:17;23.30;99.90
23721;DHT22;42950;52.134;5.578;2022-08-19T13:57:43;23.30;99.90
23721;DHT22;42950;52.134;5.578;2022-08-19T14:00:11;23.20;99.90
23721;DHT22;42950;52.134;5.578;2022-08-19T14:02:38;23.30;99.90
23721;DHT22;42950;52.134;5.578;2022-08-19T14:05:09;23.20;99.90
23721;DHT22;42950;52.134;5.578;2022-08-19T14:07:35;23.30;99.90
23721;DHT22;42950;52.134;5.578;2022-08-19T14:10:02;23.40;99.90
23721;DHT22;42950;52.134;5.578;2022-08-19T14:12:28;23.40;99.90
23721;DHT22;42950;52.134;5.578;2022-08-19T14:14:54;23.30;99.90
23721;DHT22;42950;52.134;5.578;2022-08-19T14:17:20;23.40;99.90
23721;DHT22;42950;52.134;5.578;2022-08-19T14:19:46;23.40;99.90
23721;DHT22;42950;52.134;5.578;2022-08-19T14:22:12;23.30;99.90
23721;DHT22;42950;52.134;5.578;2022-08-19T14:24:38;23.30;99.90
23721;DHT22;42950;52.134;5.578;2022-08-19T14:27:05;23.00;99.90
23721;DHT22;42950;52.134;5.578;2022-08-19T14:29:31;22.70;99.90
23721;DHT22;42950;52.134;5.578;2022-08-19T14:31:56;22.50;99.90
23721;DHT22;42950;52.134;5.578;2022-08-19T14:34:24;22.50;99.90
23721;DHT22;42950;52.134;5.578;2022-08-19T14:36:50;22.40;99.90
23721;DHT22;42950;52.134;5.578;2022-08-19T14:39:15;22.30;99.90
23721;DHT22;42950;52.134;5.578;2022-08-19T14:41:41;22.40;99.90
23721;DHT22;42950;52.134;5.578;2022-08-19T14:44:11;22.20;99.90
23721;DHT22;42950;52.134;5.578;2022-08-19T14:46:39;22.20;99.90
23721;DHT22;42950;52.134;5.578;2022-08-19T14:49:06;22.20;99.90
23721;DHT22;42950;52.134;5.578;2022-08-19T14:51:32;22.10;99.90
23721;DHT22;42950;52.134;5.578;2022-08-19T14:53:57;22.10;99.90
23721;DHT22;42950;52.134;5.578;2022-08-19T14:56:26;22.20;99.90
23721;DHT22;42950;52.134;5.578;2022-08-19T14:58:53;22.20;99.90
23721;DHT22;42950;52.134;5.578;2022-08-19T15:01:21;22.10;99.90
23721;DHT22;42950;52.134;5.578;2022-08-19T15:03:48;22.20;99.90
23721;DHT22;42950;52.134;5.578;2022-08-19T15:06:14;22.40;99.90
23721;DHT22;42950;52.134;5.578;2022-08-19T15:08:41;22.40;99.90
23721;DHT22;42950;52.134;5.578;2022-08-19T15:11:14;22.50;99.90
23721;DHT22;42950;52.134;5.578;2022-08-19T15:13:40;22.50;99.90
23721;DHT22;42950;52.134;5.578;2022-08-19T15:16:07;22.60;99.90
23721;DHT22;42950;52.134;5.578;2022-08-19T15:18:33;22.60;99.90
23721;DHT22;42950;52.134;5.578;2022-08-19T15:21:00;22.60;99.90
23721;DHT22;42950;52.134;5.578;2022-08-19T15:23:26;22.70;99.90
23721;DHT22;42950;52.134;5.578;2022-08-19T15:25:52;22.80;99.90
23721;DHT22;42950;52.134;5.578;2022-08-19T15:28:24;22.90;99.90
23721;DHT22;42950;52.134;5.578;2022-08-19T15:30:50;22.90;99.90
23721;DHT22;42950;52.134;5.578;2022-08-19T15:33:16;23.00;99.90
23721;DHT22;42950;52.134;5.578;2022-08-19T15:35:43;23.00;99.90
23721;DHT22;42950;52.134;5.578;2022-08-19T15:38:09;23.20;99.90
23721;DHT22;42950;52.134;5.578;2022-08-19T15:40:38;23.20;99.90
23721;DHT22;42950;52.134;5.578;2022-08-19T15:43:04;23.20;99.90
23721;DHT22;42950;52.134;5.578;2022-08-19T15:45:30;23.20;99.90
23721;DHT22;42950;52.134;5.578;2022-08-19T15:48:00;23.10;99.90